sensor_id;sensor_type;location;lat;lon;timestamp;pressure;altitude;pressure_sealevel;temperature;humidity
9289;BME280;4683;50.864;12.086;2023-07-13T00:01:59;98881.88;;;23.92;80.25
9289;BME280;4683;50.864;12.086;2023-07-13T00:04:37;98885.38;;;23.87;79.15
9289;BME280;4683;50.864;12.086;2023-07-13T00:07:18;98889.97;;;23.82;78.26
9289;BME280;4683;50.864;12.086;2023-07-13T00:09:48;98903.47;;;23.76;77.42
9289;BME280;4683;50.864;12.086;2023-07-13T00:12:26;98903.19;;;23.68;77.99
9289;BME280;4683;50.864;12.086;2023-07-13T00:15:36;98917.44;;;23.53;78.93
9289;BME280;4683;50.864;12.086;2023-07-13T00:18:06;98904.53;;;23.65;79.19
9289;BME280;4683;50.864;12.086;2023-07-13T00:20:38;98906.41;;;23.70;80.01
9289;BME280;4683;50.864;12.086;2023-07-13T00:23:09;98912.88;;;23.69;80.23
9289;BME280;4683;50.864;12.086;2023-07-13T00:25:39;98908.84;;;23.71;78.94
9289;BME280;4683;50.864;12.086;2023-07-13T00:28:08;98909.09;;;23.70;78.82
9289;BME280;4683;50.864;12.086;2023-07-13T00:30:36;98920.97;;;23.69;78.61
9289;BME280;4683;50.864;12.086;2023-07-13T00:33:06;98916.09;;;23.66;79.62
9289;BME280;4683;50.864;12.086;2023-07-13T00:35:48;98924.47;;;23.64;80.21
9289;BME280;4683;50.864;12.086;2023-07-13T00:38:16;98921.25;;;23.67;79.87
9289;BME280;4683;50.864;12.086;2023-07-13T00:40:46;98912.06;;;23.73;79.26
9289;BME280;4683;50.864;12.086;2023-07-13T00:43:21;98905.59;;;23.69;81.34
9289;BME280;4683;50.864;12.086;2023-07-13T00:46:19;98906.41;;;23.49;83.22
9289;BME280;4683;50.864;12.086;2023-07-13T00:48:50;98900.72;;;23.56;83.64
9289;BME280;4683;50.864;12.086;2023-07-13T00:51:32;98903.69;;;23.39;85.81
9289;BME280;4683;50.864;12.086;2023-07-13T00:54:11;98906.41;;;23.44;84.42
9289;BME280;4683;50.864;12.086;2023-07-13T00:56:42;98896.16;;;23.46;85.52
9289;BME280;4683;50.864;12.086;2023-07-13T00:59:15;98902.06;;;23.43;86.04
9289;BME280;4683;50.864;12.086;2023-07-13T01:01:45;98890.25;;;23.39;86.84
9289;BME280;4683;50.864;12.086;2023-07-13T01:04:15;98888.59;;;23.43;86.43
9289;BME280;4683;50.864;12.086;2023-07-13T01:06:45;98900.72;;;23.41;87.13
9289;BME280;4683;50.864;12.086;2023-07-13T01:09:15;98896.69;;;23.28;87.44
9289;BME280;4683;50.864;12.086;2023-07-13T01:11:44;98904.19;;;23.16;88.15
9289;BME280;4683;50.864;12.086;2023-07-13T01:14:14;98907.38;;;23.02;87.15
9289;BME280;4683;50.864;12.086;2023-07-13T01:16:49;98918.06;;;22.82;87.84
9289;BME280;4683;50.864;12.086;2023-07-13T01:19:33;98915.56;;;22.60;88.53
9289;BME280;4683;50.864;12.086;2023-07-13T01:22:09;98922.28;;;22.58;89.34
9289;BME280;4683;50.864;12.086;2023-07-13T01:24:42;98914.16;;;22.47;90.36
9289;BME280;4683;50.864;12.086;2023-07-13T01:27:31;98913.28;;;22.32;91.99
9289;BME280;4683;50.864;12.086;2023-07-13T01:30:02;98912.19;;;22.27;92.30
9289;BME280;4683;50.864;12.086;2023-07-13T01:32:32;98909.47;;;22.22;93.21
9289;BME280;4683;50.864;12.086;2023-07-13T01:35:02;98904.63;;;22.19;93.39
9289;BME280;4683;50.864;12.086;2023-07-13T01:37:32;98909.72;;;22.21;93.97
9289;BME280;4683;50.864;12.086;2023-07-13T01:40:06;98916.16;;;22.20;94.62
9289;BME280;4683;50.864;12.086;2023-07-13T01:42:37;98911.91;;;22.24;93.83
9289;BME280;4683;50.864;12.086;2023-07-13T01:45:16;98905.44;;;22.25;93.60
9289;BME280;4683;50.864;12.086;2023-07-13T01:47:54;98915.69;;;22.28;93.71
9289;BME280;4683;50.864;12.086;2023-07-13T01:50:42;98913.81;;;22.28;93.95
9289;BME280;4683;50.864;12.086;2023-07-13T01:53:31;98911.72;;;22.36;93.64
9289;BME280;4683;50.864;12.086;2023-07-13T01:56:19;98901.81;;;22.51;95.64
9289;BME280;4683;50.864;12.086;2023-07-13T01:58:59;98905.59;;;22.56;97.90
9289;BME280;4683;50.864;12.086;2023-07-13T02:01:29;98898.06;;;22.52;99.51
9289;BME280;4683;50.864;12.086;2023-07-13T02:03:58;98899.69;;;22.53;99.73
9289;BME280;4683;50.864;12.086;2023-07-13T02:06:27;98900.22;;;22.50;100.00
9289;BME280;4683;50.864;12.086;2023-07-13T02:08:59;98900.03;;;22.20;100.00
9289;BME280;4683;50.864;12.086;2023-07-13T02:11:27;98908.50;;;22.01;100.00
9289;BME280;4683;50.864;12.086;2023-07-13T02:13:59;98903.09;;;21.96;100.00
9289;BME280;4683;50.864;12.086;2023-07-13T02:16:28;98903.38;;;21.95;100.00
9289;BME280;4683;50.864;12.086;2023-07-13T02:18:56;98903.03;;;21.86;100.00
9289;BME280;4683;50.864;12.086;2023-07-13T02:21:24;98893.81;;;21.72;100.00
9289;BME280;4683;50.864;12.086;2023-07-13T02:23:53;98901.22;;;21.60;100.00
9289;BME280;4683;50.864;12.086;2023-07-13T02:26:23;98907.13;;;21.62;100.00
9289;BME280;4683;50.864;12.086;2023-07-13T02:28:51;98911.69;;;21.61;100.00
9289;BME280;4683;50.864;12.086;2023-07-13T02:31:19;98912.78;;;21.60;100.00
9289;BME280;4683;50.864;12.086;2023-07-13T02:33:47;98922.94;;;21.53;100.00
9289;BME280;4683;50.864;12.086;2023-07-13T02:36:16;98915.66;;;21.48;100.00
9289;BME280;4683;50.864;12.086;2023-07-13T02:38:45;98914.00;;;21.47;100.00
9289;BME280;4683;50.864;12.086;2023-07-13T02:41:13;98903.03;;;21.49;100.00
9289;BME280;4683;50.864;12.086;2023-07-13T02:43:42;98913.81;;;21.54;100.00
9289;BME280;4683;50.864;12.086;2023-07-13T02:46:10;98918.53;;;21.74;100.00
9289;BME280;4683;50.864;12.086;2023-07-13T02:48:39;98917.81;;;21.89;100.00
9289;BME280;4683;50.864;12.086;2023-07-13T02:51:07;98922.97;;;21.95;100.00
9289;BME280;4683;50.864;12.086;2023-07-13T02:53:35;98923.75;;;21.91;100.00
9289;BME280;4683;50.864;12.086;2023-07-13T02:56:04;98926.72;;;21.89;100.00
9289;BME280;4683;50.864;12.086;2023-07-13T02:58:32;98927.78;;;21.93;100.00
9289;BME280;4683;50.864;12.086;2023-07-13T03:01:09;98929.13;;;21.91;99.73
9289;BME280;4683;50.864;12.086;2023-07-13T03:03:38;98924.56;;;21.91;99.93
9289;BME280;4683;50.864;12.086;2023-07-13T03:06:06;98923.47;;;21.87;99.79
9289;BME280;4683;50.864;12.086;2023-07-13T03:08:37;98930.97;;;21.85;99.48
9289;BME280;4683;50.864;12.086;2023-07-13T03:11:08;98928.28;;;21.85;98.94
9289;BME280;4683;50.864;12.086;2023-07-13T03:13:38;98924.88;;;21.95;99.40
9289;BME280;4683;50.864;12.086;2023-07-13T03:16:08;98930.22;;;21.95;100.00
9289;BME280;4683;50.864;12.086;2023-07-13T03:18:38;98934.78;;;21.89;100.00
9289;BME280;4683;50.864;12.086;2023-07-13T03:21:06;98941.34;;;21.71;100.00
9289;BME280;4683;50.864;12.086;2023-07-13T03:23:34;98956.59;;;21.39;100.00
9289;BME280;4683;50.864;12.086;2023-07-13T03:26:05;98968.47;;;21.21;100.00
9289;BME280;4683;50.864;12.086;2023-07-13T03:28:36;98966.69;;;21.05;100.00
9289;BME280;4683;50.864;12.086;2023-07-13T03:31:09;98965.06;;;21.03;100.00
9289;BME280;4683;50.864;12.086;2023-07-13T03:33:38;98976.84;;;21.02;100.00
9289;BME280;4683;50.864;12.086;2023-07-13T03:36:07;98976.66;;;21.09;100.00
9289;BME280;4683;50.864;12.086;2023-07-13T03:38:36;98977.97;;;21.07;100.00
9289;BME280;4683;50.864;12.086;2023-07-13T03:41:04;98963.41;;;21.24;100.00
9289;BME280;4683;50.864;12.086;2023-07-13T03:43:32;98973.16;;;21.31;100.00
9289;BME280;4683;50.864;12.086;2023-07-13T03:46:00;98987.75;;;21.40;100.00
9289;BME280;4683;50.864;12.086;2023-07-13T03:48:29;98982.69;;;21.43;100.00
9289;BME280;4683;50.864;12.086;2023-07-13T03:50:57;98980.34;;;21.52;100.00
9289;BME280;4683;50.864;12.086;2023-07-13T03:53:26;98973.38;;;21.51;100.00
9289;BME280;4683;50.864;12.086;2023-07-13T03:55:54;98976.06;;;21.51;100.00
9289;BME280;4683;50.864;12.086;2023-07-13T03:58:29;98985.97;;;21.50;99.99
9289;BME280;4683;50.864;12.086;2023-07-13T04:00:57;98979.44;;;21.41;100.00
9289;BME280;4683;50.864;12.086;2023-07-13T04:03:27;98978.00;;;21.34;100.00
9289;BME280;4683;50.864;12.086;2023-07-13T04:05:57;98987.59;;;21.29;100.00
9289;BME280;4683;50.864;12.086;2023-07-13T04:08:27;98985.19;;;21.28;100.00
9289;BME280;4683;50.864;12.086;2023-07-13T04:10:55;98993.19;;;21.23;100.00
9289;BME280;4683;50.864;12.086;2023-07-13T04:13:25;98985.72;;;21.30;100.00
9289;BME280;4683;50.864;12.086;2023-07-13T04:15:53;98980.34;;;21.52;100.00
9289;BME280;4683;50.864;12.086;2023-07-13T04:18:22;98993.34;;;21.65;100.00
9289;BME280;4683;50.864;12.086;2023-07-13T04:20:51;98986.00;;;21.83;99.28
9289;BME280;4683;50.864;12.086;2023-07-13T04:23:20;98987.03;;;21.76;100.00
9289;BME280;4683;50.864;12.086;2023-07-13T04:29:54;98972.38;;;21.89;98.85
9289;BME280;4683;50.864;12.086;2023-07-13T04:32:24;98978.56;;;21.90;99.14
9289;BME280;4683;50.864;12.086;2023-07-13T04:34:56;98976.81;;;22.11;96.57
9289;BME280;4683;50.864;12.086;2023-07-13T04:37:26;98988.56;;;22.32;95.54
9289;BME280;4683;50.864;12.086;2023-07-13T04:39:58;98978.97;;;22.09;96.09
9289;BME280;4683;50.864;12.086;2023-07-13T04:42:31;98979.22;;;21.75;98.96
9289;BME280;4683;50.864;12.086;2023-07-13T04:45:05;98988.13;;;21.48;100.00
9289;BME280;4683;50.864;12.086;2023-07-13T04:47:34;98989.91;;;21.21;100.00
9289;BME280;4683;50.864;12.086;2023-07-13T04:50:03;98993.50;;;21.26;100.00
9289;BME280;4683;50.864;12.086;2023-07-13T04:52:33;98995.91;;;21.77;100.00
9289;BME280;4683;50.864;12.086;2023-07-13T04:55:04;98992.47;;;22.14;97.44
9289;BME280;4683;50.864;12.086;2023-07-13T04:57:32;98997.00;;;22.50;94.81
9289;BME280;4683;50.864;12.086;2023-07-13T05:00:01;99006.88;;;22.87;91.55
9289;BME280;4683;50.864;12.086;2023-07-13T05:02:33;99004.38;;;23.33;87.85
9289;BME280;4683;50.864;12.086;2023-07-13T05:05:03;99003.09;;;23.66;84.55
9289;BME280;4683;50.864;12.086;2023-07-13T05:07:31;99007.63;;;23.35;86.81
9289;BME280;4683;50.864;12.086;2023-07-13T05:10:02;98999.38;;;23.77;83.25
9289;BME280;4683;50.864;12.086;2023-07-13T05:12:33;99005.28;;;24.25;78.95
9289;BME280;4683;50.864;12.086;2023-07-13T05:15:03;99001.22;;;24.33;75.66
9289;BME280;4683;50.864;12.086;2023-07-13T05:17:35;99000.69;;;24.36;75.06
9289;BME280;4683;50.864;12.086;2023-07-13T05:20:07;99005.00;;;24.47;76.05
9289;BME280;4683;50.864;12.086;2023-07-13T05:22:36;99017.41;;;24.28;76.72
9289;BME280;4683;50.864;12.086;2023-07-13T05:25:09;99007.72;;;23.76;77.92
9289;BME280;4683;50.864;12.086;2023-07-13T05:27:41;99017.84;;;23.43;81.50
9289;BME280;4683;50.864;12.086;2023-07-13T05:30:14;99010.81;;;23.27;83.53
9289;BME280;4683;50.864;12.086;2023-07-13T05:32:42;99013.72;;;23.10;84.51
9289;BME280;4683;50.864;12.086;2023-07-13T05:35:10;99019.38;;;23.09;83.46
9289;BME280;4683;50.864;12.086;2023-07-13T05:37:39;99022.59;;;23.11;82.96
9289;BME280;4683;50.864;12.086;2023-07-13T05:40:10;99025.69;;;23.45;81.38
9289;BME280;4683;50.864;12.086;2023-07-13T05:42:40;99033.50;;;23.51;80.84
9289;BME280;4683;50.864;12.086;2023-07-13T05:45:09;99028.72;;;23.74;79.78
9289;BME280;4683;50.864;12.086;2023-07-13T05:47:37;99029.28;;;23.96;77.79
9289;BME280;4683;50.864;12.086;2023-07-13T05:50:07;99034.41;;;24.13;76.55
9289;BME280;4683;50.864;12.086;2023-07-13T05:52:36;99024.44;;;24.44;73.87
9289;BME280;4683;50.864;12.086;2023-07-13T05:55:05;99022.78;;;24.59;72.21
9289;BME280;4683;50.864;12.086;2023-07-13T05:57:35;99037.34;;;24.63;72.58
9289;BME280;4683;50.864;12.086;2023-07-13T06:00:04;99029.75;;;24.75;71.73
9289;BME280;4683;50.864;12.086;2023-07-13T06:02:33;99023.22;;;24.91;69.92
9289;BME280;4683;50.864;12.086;2023-07-13T06:05:02;99027.53;;;25.08;68.87
9289;BME280;4683;50.864;12.086;2023-07-13T06:07:30;99023.00;;;24.77;70.29
9289;BME280;4683;50.864;12.086;2023-07-13T06:09:59;99023.84;;;24.68;71.33
9289;BME280;4683;50.864;12.086;2023-07-13T06:12:27;99022.75;;;24.69;70.94
9289;BME280;4683;50.864;12.086;2023-07-13T06:14:57;99029.25;;;24.68;69.73
9289;BME280;4683;50.864;12.086;2023-07-13T06:17:26;99026.44;;;24.93;68.61
9289;BME280;4683;50.864;12.086;2023-07-13T06:19:55;99033.44;;;25.04;66.88
9289;BME280;4683;50.864;12.086;2023-07-13T06:22:23;99031.91;;;24.78;68.67
9289;BME280;4683;50.864;12.086;2023-07-13T06:24:52;99038.44;;;24.46;72.34
9289;BME280;4683;50.864;12.086;2023-07-13T06:27:21;99043.78;;;24.77;69.36
9289;BME280;4683;50.864;12.086;2023-07-13T06:29:50;99040.53;;;24.75;67.78
9289;BME280;4683;50.864;12.086;2023-07-13T06:32:20;99047.09;;;24.48;69.49
9289;BME280;4683;50.864;12.086;2023-07-13T06:34:48;99047.63;;;24.35;70.61
9289;BME280;4683;50.864;12.086;2023-07-13T06:37:18;99049.75;;;24.33;71.00
9289;BME280;4683;50.864;12.086;2023-07-13T06:39:47;99049.25;;;24.41;70.07
9289;BME280;4683;50.864;12.086;2023-07-13T06:42:17;99056.22;;;23.91;74.35
9289;BME280;4683;50.864;12.086;2023-07-13T06:44:45;99060.00;;;24.21;72.76
9289;BME280;4683;50.864;12.086;2023-07-13T06:47:14;99058.66;;;24.34;70.63
9289;BME280;4683;50.864;12.086;2023-07-13T06:49:44;99061.63;;;24.27;70.47
9289;BME280;4683;50.864;12.086;2023-07-13T06:52:12;99062.44;;;24.33;70.99
9289;BME280;4683;50.864;12.086;2023-07-13T06:54:41;99070.78;;;24.57;68.21
9289;BME280;4683;50.864;12.086;2023-07-13T06:57:09;99071.34;;;24.64;66.96
9289;BME280;4683;50.864;12.086;2023-07-13T06:59:38;99071.34;;;24.64;65.80
9289;BME280;4683;50.864;12.086;2023-07-13T07:02:08;99069.69;;;24.73;65.11
9289;BME280;4683;50.864;12.086;2023-07-13T07:04:40;99073.22;;;24.68;64.27
9289;BME280;4683;50.864;12.086;2023-07-13T07:07:10;99079.72;;;24.52;63.80
9289;BME280;4683;50.864;12.086;2023-07-13T07:09:38;99077.56;;;24.44;63.58
9289;BME280;4683;50.864;12.086;2023-07-13T07:12:08;99082.41;;;24.26;64.13
9289;BME280;4683;50.864;12.086;2023-07-13T07:14:36;99074.03;;;24.13;64.73
9289;BME280;4683;50.864;12.086;2023-07-13T07:17:04;99080.50;;;24.17;65.10
9289;BME280;4683;50.864;12.086;2023-07-13T07:19:35;99089.16;;;24.44;63.36
9289;BME280;4683;50.864;12.086;2023-07-13T07:22:04;99081.09;;;24.44;62.94
9289;BME280;4683;50.864;12.086;2023-07-13T07:24:34;99083.75;;;24.24;64.85
9289;BME280;4683;50.864;12.086;2023-07-13T07:27:02;99085.66;;;24.39;64.32
9289;BME280;4683;50.864;12.086;2023-07-13T07:29:30;99094.81;;;24.48;64.65
9289;BME280;4683;50.864;12.086;2023-07-13T07:31:59;99087.00;;;24.46;65.93
9289;BME280;4683;50.864;12.086;2023-07-13T07:34:27;99085.66;;;24.59;65.31
9289;BME280;4683;50.864;12.086;2023-07-13T07:36:59;99077.25;;;24.66;64.66
9289;BME280;4683;50.864;12.086;2023-07-13T07:39:29;99085.34;;;24.76;64.80
9289;BME280;4683;50.864;12.086;2023-07-13T07:41:59;99083.94;;;24.89;63.58
9289;BME280;4683;50.864;12.086;2023-07-13T07:44:27;99081.97;;;25.30;62.26
9289;BME280;4683;50.864;12.086;2023-07-13T07:46:56;99083.31;;;25.27;62.24
9289;BME280;4683;50.864;12.086;2023-07-13T07:49:24;99075.34;;;25.56;60.34
9289;BME280;4683;50.864;12.086;2023-07-13T07:51:52;99081.34;;;25.48;61.32
9289;BME280;4683;50.864;12.086;2023-07-13T07:54:21;99087.38;;;25.25;63.01
9289;BME280;4683;50.864;12.086;2023-07-13T07:56:49;99086.41;;;24.85;65.31
9289;BME280;4683;50.864;12.086;2023-07-13T07:59:19;99084.44;;;25.16;64.11
9289;BME280;4683;50.864;12.086;2023-07-13T08:01:48;99078.22;;;25.16;63.49
9289;BME280;4683;50.864;12.086;2023-07-13T08:04:17;99080.94;;;25.21;65.04
9289;BME280;4683;50.864;12.086;2023-07-13T08:06:46;99083.25;;;25.43;62.50
9289;BME280;4683;50.864;12.086;2023-07-13T08:09:14;99082.50;;;25.87;59.83
9289;BME280;4683;50.864;12.086;2023-07-13T08:11:43;99076.06;;;26.51;57.44
9289;BME280;4683;50.864;12.086;2023-07-13T08:14:11;99085.81;;;26.81;55.28
9289;BME280;4683;50.864;12.086;2023-07-13T08:16:41;99073.19;;;27.19;52.45
9289;BME280;4683;50.864;12.086;2023-07-13T08:19:09;99073.19;;;27.19;51.06
9289;BME280;4683;50.864;12.086;2023-07-13T08:21:38;99072.22;;;27.10;51.42
9289;BME280;4683;50.864;12.086;2023-07-13T08:24:07;99077.88;;;27.56;50.28
9289;BME280;4683;50.864;12.086;2023-07-13T08:26:35;99083.91;;;26.81;52.12
9289;BME280;4683;50.864;12.086;2023-07-13T08:29:04;99081.50;;;26.51;53.71
9289;BME280;4683;50.864;12.086;2023-07-13T08:31:32;99088.03;;;26.45;54.09
9289;BME280;4683;50.864;12.086;2023-07-13T08:34:03;99086.41;;;26.10;54.46
9289;BME280;4683;50.864;12.086;2023-07-13T08:36:31;99082.28;;;26.17;54.21
9289;BME280;4683;50.864;12.086;2023-07-13T08:39:00;99087.78;;;26.41;53.57
9289;BME280;4683;50.864;12.086;2023-07-13T08:41:29;99082.34;;;26.99;52.25
9289;BME280;4683;50.864;12.086;2023-07-13T08:43:59;99087.06;;;26.30;53.17
9289;BME280;4683;50.864;12.086;2023-07-13T08:46:34;99078.41;;;25.94;51.99
9289;BME280;4683;50.864;12.086;2023-07-13T08:49:11;99085.44;;;25.95;52.83
9289;BME280;4683;50.864;12.086;2023-07-13T08:51:45;99077.69;;;26.18;51.85
9289;BME280;4683;50.864;12.086;2023-07-13T08:54:27;99086.16;;;26.40;50.99
9289;BME280;4683;50.864;12.086;2023-07-13T08:56:56;99077.91;;;26.55;50.99
9289;BME280;4683;50.864;12.086;2023-07-13T08:59:28;99078.66;;;26.90;50.21
9289;BME280;4683;50.864;12.086;2023-07-13T09:02:20;99075.09;;;27.19;48.23
9289;BME280;4683;50.864;12.086;2023-07-13T09:04:58;99072.78;;;27.74;47.13
9289;BME280;4683;50.864;12.086;2023-07-13T09:07:40;99071.84;;;26.93;48.20
9289;BME280;4683;50.864;12.086;2023-07-13T09:10:16;99076.19;;;26.94;49.34
9289;BME280;4683;50.864;12.086;2023-07-13T09:13:02;99071.66;;;26.89;49.58
9289;BME280;4683;50.864;12.086;2023-07-13T09:15:38;99070.03;;;27.36;48.43
9289;BME280;4683;50.864;12.086;2023-07-13T09:18:12;99073.59;;;26.54;47.37
9289;BME280;4683;50.864;12.086;2023-07-13T09:20:49;99078.31;;;26.44;46.65
9289;BME280;4683;50.864;12.086;2023-07-13T09:23:23;99080.19;;;26.43;48.35
9289;BME280;4683;50.864;12.086;2023-07-13T09:25:57;99080.94;;;26.15;49.27
9289;BME280;4683;50.864;12.086;2023-07-13T09:28:29;99083.09;;;26.18;49.13
9289;BME280;4683;50.864;12.086;2023-07-13T09:31:03;99079.22;;;25.95;49.63
9289;BME280;4683;50.864;12.086;2023-07-13T09:33:32;99090.50;;;25.58;50.08
9289;BME280;4683;50.864;12.086;2023-07-13T09:36:21;99088.53;;;24.88;50.51
9289;BME280;4683;50.864;12.086;2023-07-13T09:38:57;99097.22;;;24.80;51.57
9289;BME280;4683;50.864;12.086;2023-07-13T09:41:37;99099.09;;;24.85;51.65
9289;BME280;4683;50.864;12.086;2023-07-13T09:44:10;99115.56;;;24.78;51.95
9289;BME280;4683;50.864;12.086;2023-07-13T09:46:45;99113.97;;;24.51;52.11
9289;BME280;4683;50.864;12.086;2023-07-13T09:49:14;99109.38;;;24.67;52.42
9289;BME280;4683;50.864;12.086;2023-07-13T09:51:45;99109.66;;;24.71;52.57
9289;BME280;4683;50.864;12.086;2023-07-13T09:54:21;99114.47;;;24.74;53.05
9289;BME280;4683;50.864;12.086;2023-07-13T09:56:55;99110.13;;;25.09;52.36
9289;BME280;4683;50.864;12.086;2023-07-13T09:59:28;99112.03;;;25.08;52.05
9289;BME280;4683;50.864;12.086;2023-07-13T10:01:57;99118.50;;;24.87;51.54
9289;BME280;4683;50.864;12.086;2023-07-13T10:04:31;99112.84;;;25.09;51.35
9289;BME280;4683;50.864;12.086;2023-07-13T10:07:09;99102.75;;;25.40;50.86
9289;BME280;4683;50.864;12.086;2023-07-13T10:09:38;99102.94;;;25.53;50.78
9289;BME280;4683;50.864;12.086;2023-07-13T10:12:14;99099.97;;;26.04;49.22
9289;BME280;4683;50.864;12.086;2023-07-13T10:14:45;99107.56;;;25.97;48.37
9289;BME280;4683;50.864;12.086;2023-07-13T10:17:15;99102.56;;;25.80;48.52
9289;BME280;4683;50.864;12.086;2023-07-13T10:19:49;99105.75;;;25.88;48.16
9289;BME280;4683;50.864;12.086;2023-07-13T10:22:23;99096.06;;;26.16;46.60
9289;BME280;4683;50.864;12.086;2023-07-13T10:24:54;99100.25;;;25.98;47.02
9289;BME280;4683;50.864;12.086;2023-07-13T10:27:29;99095.50;;;25.74;45.94
9289;BME280;4683;50.864;12.086;2023-07-13T10:30:04;99093.66;;;26.14;45.22
9289;BME280;4683;50.864;12.086;2023-07-13T10:32:37;99075.69;;;27.16;43.61
9289;BME280;4683;50.864;12.086;2023-07-13T10:35:10;99079.69;;;27.42;42.32
9289;BME280;4683;50.864;12.086;2023-07-13T10:37:47;99083.09;;;26.81;42.83
9289;BME280;4683;50.864;12.086;2023-07-13T10:40:23;99091.59;;;26.69;43.11
9289;BME280;4683;50.864;12.086;2023-07-13T10:42:59;99088.81;;;26.50;44.39
9289;BME280;4683;50.864;12.086;2023-07-13T10:45:33;99089.41;;;26.08;45.12
9289;BME280;4683;50.864;12.086;2023-07-13T10:48:04;99094.13;;;25.87;45.00
9289;BME280;4683;50.864;12.086;2023-07-13T10:50:35;99096.31;;;25.75;45.12
9289;BME280;4683;50.864;12.086;2023-07-13T10:53:20;99091.59;;;25.51;44.69
9289;BME280;4683;50.864;12.086;2023-07-13T10:56:00;99089.59;;;25.77;44.17
9289;BME280;4683;50.864;12.086;2023-07-13T10:58:34;99092.44;;;25.96;43.37
9289;BME280;4683;50.864;12.086;2023-07-13T11:01:09;99083.84;;;26.23;43.26
9289;BME280;4683;50.864;12.086;2023-07-13T11:03:48;99087.38;;;26.24;42.79
9289;BME280;4683;50.864;12.086;2023-07-13T11:06:34;99084.50;;;26.49;42.18
9289;BME280;4683;50.864;12.086;2023-07-13T11:09:32;99084.91;;;26.62;40.61
9289;BME280;4683;50.864;12.086;2023-07-13T11:12:09;99080.09;;;27.12;39.77
9289;BME280;4683;50.864;12.086;2023-07-13T11:15:09;99088.91;;;27.41;38.37
9289;BME280;4683;50.864;12.086;2023-07-13T11:17:49;99086.34;;;27.74;38.87
9289;BME280;4683;50.864;12.086;2023-07-13T11:20:34;99078.44;;;27.11;39.37
9289;BME280;4683;50.864;12.086;2023-07-13T11:23:21;99088.28;;;26.48;40.11
9289;BME280;4683;50.864;12.086;2023-07-13T11:25:56;99093.06;;;26.56;40.18
9289;BME280;4683;50.864;12.086;2023-07-13T11:28:30;99089.34;;;26.47;40.37
9289;BME280;4683;50.864;12.086;2023-07-13T11:31:13;99075.91;;;26.37;40.18
9289;BME280;4683;50.864;12.086;2023-07-13T11:33:55;99078.59;;;26.95;39.37
9289;BME280;4683;50.864;12.086;2023-07-13T11:36:30;99075.53;;;27.02;38.49
9289;BME280;4683;50.864;12.086;2023-07-13T11:39:04;99064.34;;;27.14;37.04
9289;BME280;4683;50.864;12.086;2023-07-13T11:41:50;99063.88;;;27.49;37.80
9289;BME280;4683;50.864;12.086;2023-07-13T11:44:21;99067.00;;;27.38;36.90
9289;BME280;4683;50.864;12.086;2023-07-13T11:46:53;99065.22;;;27.71;36.34
9289;BME280;4683;50.864;12.086;2023-07-13T11:49:23;99060.22;;;27.40;35.79
9289;BME280;4683;50.864;12.086;2023-07-13T11:51:53;99057.44;;;27.45;36.33
9289;BME280;4683;50.864;12.086;2023-07-13T11:54:28;99056.34;;;27.46;35.96
9289;BME280;4683;50.864;12.086;2023-07-13T11:57:01;99059.34;;;27.45;36.06
9289;BME280;4683;50.864;12.086;2023-07-13T11:59:36;99064.03;;;27.58;35.49
9289;BME280;4683;50.864;12.086;2023-07-13T12:02:17;99062.41;;;27.38;35.01
9289;BME280;4683;50.864;12.086;2023-07-13T12:04:48;99064.78;;;27.64;34.26
9289;BME280;4683;50.864;12.086;2023-07-13T12:07:19;99060.09;;;27.88;33.77
9289;BME280;4683;50.864;12.086;2023-07-13T12:09:48;99056.25;;;27.75;33.96
9289;BME280;4683;50.864;12.086;2023-07-13T12:12:21;99042.94;;;27.93;33.62
9289;BME280;4683;50.864;12.086;2023-07-13T12:14:51;99049.75;;;27.71;33.71
9289;BME280;4683;50.864;12.086;2023-07-13T12:17:23;99051.47;;;27.24;34.18
9289;BME280;4683;50.864;12.086;2023-07-13T12:19:53;99044.66;;;27.27;33.98
9289;BME280;4683;50.864;12.086;2023-07-13T12:22:24;99057.44;;;26.97;35.08
9289;BME280;4683;50.864;12.086;2023-07-13T12:24:53;99057.94;;;26.80;35.67
9289;BME280;4683;50.864;12.086;2023-07-13T12:27:26;99049.84;;;27.23;34.94
9289;BME280;4683;50.864;12.086;2023-07-13T12:30:00;99060.06;;;27.50;34.07
9289;BME280;4683;50.864;12.086;2023-07-13T12:32:29;99053.13;;;28.01;33.99
9289;BME280;4683;50.864;12.086;2023-07-13T12:35:13;99047.50;;;28.30;33.31
9289;BME280;4683;50.864;12.086;2023-07-13T12:37:43;99042.06;;;28.63;33.03
9289;BME280;4683;50.864;12.086;2023-07-13T12:40:15;99044.78;;;28.30;33.48
9289;BME280;4683;50.864;12.086;2023-07-13T12:42:48;99058.31;;;28.49;32.86
9289;BME280;4683;50.864;12.086;2023-07-13T12:45:21;99049.88;;;28.50;33.01
9289;BME280;4683;50.864;12.086;2023-07-13T12:47:54;99054.72;;;28.53;33.34
9289;BME280;4683;50.864;12.086;2023-07-13T12:50:36;99060.44;;;28.33;32.79
9289;BME280;4683;50.864;12.086;2023-07-13T12:53:12;99052.50;;;28.55;32.90
9289;BME280;4683;50.864;12.086;2023-07-13T12:55:42;99057.13;;;28.69;32.41
9289;BME280;4683;50.864;12.086;2023-07-13T12:58:20;99060.72;;;28.18;33.35
9289;BME280;4683;50.864;12.086;2023-07-13T13:00:50;99071.38;;;27.95;33.34
9289;BME280;4683;50.864;12.086;2023-07-13T13:03:26;99059.66;;;27.81;33.26
9289;BME280;4683;50.864;12.086;2023-07-13T13:06:00;99077.16;;;27.89;32.86
9289;BME280;4683;50.864;12.086;2023-07-13T13:08:30;99071.53;;;27.85;32.99
9289;BME280;4683;50.864;12.086;2023-07-13T13:10:59;99074.59;;;27.60;33.73
9289;BME280;4683;50.864;12.086;2023-07-13T13:13:29;99061.69;;;27.51;34.36
9289;BME280;4683;50.864;12.086;2023-07-13T13:16:02;99065.19;;;27.33;34.84
9289;BME280;4683;50.864;12.086;2023-07-13T13:18:32;99068.13;;;27.55;34.30
9289;BME280;4683;50.864;12.086;2023-07-13T13:21:02;99071.41;;;27.76;34.51
9289;BME280;4683;50.864;12.086;2023-07-13T13:23:31;99073.47;;;27.85;34.27
9289;BME280;4683;50.864;12.086;2023-07-13T13:25:59;99078.81;;;27.90;33.84
9289;BME280;4683;50.864;12.086;2023-07-13T13:28:31;99078.56;;;27.86;33.79
9289;BME280;4683;50.864;12.086;2023-07-13T13:30:59;99075.59;;;28.39;33.57
9289;BME280;4683;50.864;12.086;2023-07-13T13:33:28;99071.94;;;28.30;33.16
9289;BME280;4683;50.864;12.086;2023-07-13T13:35:57;99082.34;;;28.23;33.79
9289;BME280;4683;50.864;12.086;2023-07-13T13:38:27;99078.34;;;28.34;33.00
9289;BME280;4683;50.864;12.086;2023-07-13T13:40:56;99085.53;;;27.92;33.13